Time;durP1;ratioP1;P1;durP2;ratioP2;P2;SDS_P1;SDS_P2;PMS_P1;PMS_P2;Temp;Humidity;BMP_temperature;BMP_pressure;BME280_temperature;BME280_humidity;BME280_pressure;Samples;Min_cycle;Max_cycle;Signal;HPM_P1;HPM_P2
2022/09/06 00:00:43;;;;;;;6.03;0.80;;;;;;;17.65;68.06;99895.84;4977981;28;20050;-38
2022/09/06 00:03:10;;;;;;;1.17;0.55;;;;;;;17.65;67.83;99906.34;4976800;28;20390;-39
2022/09/06 00:05:37;;;;;;;1.95;0.60;;;;;;;17.63;67.97;99905.50;4978329;28;20101;-38
2022/09/06 00:08:04;;;;;;;1.38;0.57;;;;;;;17.62;67.53;99913.44;4975892;28;20051;-40
2022/09/06 00:10:32;;;;;;;1.73;0.55;;;;;;;17.57;68.07;99905.75;4975739;28;20043;-37
2022/09/06 00:13:01;;;;;;;1.88;0.70;;;;;;;17.56;67.77;99907.50;4980897;28;20046;-39
2022/09/06 00:15:27;;;;;;;1.02;0.55;;;;;;;17.54;68.46;99911.09;4983604;28;20062;-42
2022/09/06 00:17:57;;;;;;;1.70;0.52;;;;;;;17.52;68.09;99915.50;4979610;28;20054;-39
2022/09/06 00:20:26;;;;;;;3.33;0.75;;;;;;;17.50;68.79;99909.47;4979623;28;20050;-40
2022/09/06 00:23:03;;;;;;;1.00;0.50;;;;;;;17.45;68.30;99917.47;4972348;28;20086;-37
2022/09/06 00:25:30;;;;;;;1.73;0.57;;;;;;;17.45;68.04;99914.84;4967605;28;20046;-43
2022/09/06 00:28:01;;;;;;;1.27;0.40;;;;;;;17.46;68.72;99919.19;4969932;28;20057;-42
2022/09/06 00:30:29;;;;;;;0.95;0.47;;;;;;;17.45;68.54;99915.72;4976081;28;20085;-41
2022/09/06 00:32:56;;;;;;;1.30;0.65;;;;;;;17.45;68.23;99905.25;4966922;28;20054;-47
2022/09/06 00:35:25;;;;;;;1.42;0.40;;;;;;;17.46;68.24;99906.09;4967693;28;20109;-46
2022/09/06 00:37:56;;;;;;;2.50;0.52;;;;;;;17.46;68.35;99908.72;4977094;28;20097;-40
2022/09/06 00:40:23;;;;;;;1.13;0.65;;;;;;;17.44;68.40;99907.91;4971628;28;20055;-43
2022/09/06 00:42:50;;;;;;;1.77;0.63;;;;;;;17.42;68.70;99902.72;4976248;28;20051;-44
2022/09/06 00:45:18;;;;;;;2.60;0.55;;;;;;;17.42;69.08;99904.47;4976112;28;20102;-44
2022/09/06 00:47:44;;;;;;;1.48;0.30;;;;;;;17.40;68.73;99904.56;4975145;28;20092;-39
2022/09/06 00:50:13;;;;;;;0.77;0.30;;;;;;;17.39;68.04;99910.69;4977185;28;20051;-42
2022/09/06 00:52:41;;;;;;;1.45;0.55;;;;;;;17.33;68.79;99901.28;4973821;28;20054;-39
2022/09/06 00:55:08;;;;;;;4.47;0.88;;;;;;;17.28;68.87;99897.09;4978981;28;20050;-40
2022/09/06 00:57:35;;;;;;;2.28;0.30;;;;;;;17.25;69.33;99894.59;4980226;28;20054;-40
2022/09/06 01:00:06;;;;;;;1.80;1.08;;;;;;;17.25;68.81;99899.84;4983221;28;20113;-40
2022/09/06 01:02:33;;;;;;;1.40;0.50;;;;;;;17.25;68.86;99892.00;4965014;28;20111;-42
2022/09/06 01:05:01;;;;;;;1.50;0.40;;;;;;;17.25;69.31;99894.59;4972684;28;20061;-39
2022/09/06 01:16:13;;;;;;;3.35;1.55;;;;;;;17.15;68.96;99892.28;5039031;28;20417;-38
2022/09/06 01:21:29;;;;;;;2.15;1.05;;;;;;;17.14;69.01;99889.69;5105620;27;20887;-38
2022/09/06 01:31:57;;;;;;;17.90;0.80;;;;;;;16.88;68.93;99888.78;5032722;27;20403;-40
2022/09/06 01:34:31;;;;;;;2.80;0.50;;;;;;;16.75;69.78;99896.13;5018790;28;20050;-42
2022/09/06 01:37:04;;;;;;;2.05;0.30;;;;;;;16.63;70.08;99895.59;5007594;28;20119;-40
2022/09/06 01:39:40;;;;;;;3.88;0.85;;;;;;;16.52;70.24;99887.22;5005999;28;20064;-41
2022/09/06 01:42:14;;;;;;;2.42;0.50;;;;;;;16.41;71.32;99885.78;5003326;28;20145;-41
2022/09/06 01:44:47;;;;;;;1.02;0.63;;;;;;;16.31;72.11;99893.03;5004589;28;20081;-40
2022/09/06 02:24:17;;;;;;;9.40;3.30;;;;;;;16.22;76.35;99868.94;5021653;27;20890;-43
2022/09/06 02:26:45;;;;;;;8.13;3.33;;;;;;;16.27;76.02;99864.41;5007741;28;20655;-41
2022/09/06 02:29:13;;;;;;;7.85;3.08;;;;;;;16.22;76.79;99874.16;5012958;28;20099;-40
2022/09/06 02:31:46;;;;;;;10.13;3.40;;;;;;;16.22;77.86;99863.72;5017551;28;20050;-41
2022/09/06 02:34:14;;;;;;;13.45;3.90;;;;;;;16.29;76.44;99865.25;4983164;28;20054;-38
2022/09/06 02:36:41;;;;;;;14.23;3.35;;;;;;;16.29;77.00;99860.03;4991005;28;20046;-39
2022/09/06 02:39:08;;;;;;;26.67;4.43;;;;;;;16.36;76.18;99858.06;4991196;28;20065;-41
2022/09/06 02:41:36;;;;;;;53.03;4.43;;;;;;;16.38;76.54;99857.13;4978604;28;20113;-39
2022/09/06 02:44:03;;;;;;;52.20;5.38;;;;;;;16.42;76.42;99845.66;4987237;28;20113;-43
2022/09/06 02:46:29;;;;;;;69.50;5.50;;;;;;;16.43;77.48;99852.63;4990571;28;20528;-38
2022/09/06 02:48:56;;;;;;;66.15;6.22;;;;;;;16.46;76.63;99851.69;4991723;28;20053;-40
2022/09/06 02:51:23;;;;;;;59.13;4.47;;;;;;;16.51;76.45;99848.94;4982347;28;20054;-44
2022/09/06 02:53:49;;;;;;;62.05;6.28;;;;;;;16.53;76.36;99857.56;4983546;28;20055;-43
2022/09/06 02:56:16;;;;;;;83.25;5.13;;;;;;;16.51;77.14;99855.00;4983261;28;20101;-41
2022/09/06 02:58:43;;;;;;;54.00;5.30;;;;;;;16.52;78.11;99853.25;4989796;28;20367;-44
2022/09/06 03:01:09;;;;;;;74.57;6.18;;;;;;;16.50;77.98;99847.19;4986133;28;20115;-41
2022/09/06 03:03:36;;;;;;;33.92;4.13;;;;;;;16.44;78.25;99843.88;4987270;28;20146;-40
2022/09/06 03:06:03;;;;;;;106.53;7.05;;;;;;;16.43;78.85;99836.09;4981673;28;20058;-42
2022/09/06 03:08:32;;;;;;;48.88;5.28;;;;;;;16.36;79.56;99845.00;4983752;28;20046;-39
2022/09/06 03:10:59;;;;;;;80.80;5.65;;;;;;;16.40;79.24;99842.25;4980327;28;20141;-38
2022/09/06 03:13:27;;;;;;;147.10;7.25;;;;;;;16.47;79.02;99840.31;4982261;28;20478;-39
2022/09/06 03:15:56;;;;;;;93.28;7.20;;;;;;;16.43;79.15;99841.31;4995333;28;20143;-42
2022/09/06 03:18:24;;;;;;;79.85;6.65;;;;;;;16.48;78.96;99836.78;4990123;28;20478;-43
2022/09/06 03:20:52;;;;;;;55.20;6.25;;;;;;;16.49;78.70;99824.59;4984661;28;20454;-43
2022/09/06 03:23:21;;;;;;;91.32;6.25;;;;;;;16.52;78.93;99824.50;4985242;28;20070;-41
2022/09/06 03:25:48;;;;;;;75.00;6.20;;;;;;;16.53;78.82;99831.44;4989465;28;20050;-39
2022/09/06 03:28:16;;;;;;;76.03;7.18;;;;;;;16.55;78.46;99824.41;4989105;28;20046;-38
2022/09/06 03:30:45;;;;;;;32.72;5.32;;;;;;;16.63;78.55;99837.22;4986755;28;20125;-40
2022/09/06 03:33:12;;;;;;;59.28;5.85;;;;;;;16.65;77.73;99831.03;4992472;28;20141;-42
2022/09/06 03:35:40;;;;;;;75.97;5.95;;;;;;;16.69;77.68;99832.66;4969721;28;20050;-38
2022/09/06 03:38:07;;;;;;;50.15;5.72;;;;;;;16.70;77.86;99826.53;4968356;28;20764;-45
2022/09/06 03:40:33;;;;;;;43.90;5.70;;;;;;;16.73;77.72;99822.09;4976366;28;20097;-38
2022/09/06 03:43:00;;;;;;;62.38;6.78;;;;;;;16.75;78.19;99820.31;4974188;28;20056;-41
2022/09/06 03:45:26;;;;;;;32.58;6.43;;;;;;;16.75;77.62;99822.91;4969650;28;20046;-41
2022/09/06 03:47:53;;;;;;;24.25;5.82;;;;;;;16.76;77.60;99816.78;4979846;28;20054;-49
2022/09/06 03:50:20;;;;;;;34.03;6.57;;;;;;;16.79;78.45;99811.44;4975316;28;20047;-40
2022/09/06 03:52:46;;;;;;;23.02;6.80;;;;;;;16.80;78.61;99818.38;4968078;28;20043;-40
2022/09/06 03:55:13;;;;;;;22.35;6.43;;;;;;;16.77;78.66;99808.00;4976840;28;20055;-41
2022/09/06 03:57:40;;;;;;;19.65;6.68;;;;;;;16.77;78.68;99814.09;4967388;28;20078;-44
2022/09/06 04:00:07;;;;;;;23.95;7.32;;;;;;;16.80;78.50;99807.91;4980658;28;20046;-40
2022/09/06 04:02:33;;;;;;;22.55;6.53;;;;;;;16.80;77.84;99808.78;4977595;28;20055;-38
2022/09/06 04:05:00;;;;;;;19.98;6.82;;;;;;;16.80;78.02;99808.78;4974231;28;20046;-44
2022/09/06 04:07:27;;;;;;;21.27;6.60;;;;;;;16.78;78.78;99805.34;4971795;28;20047;-39
2022/09/06 04:09:53;;;;;;;19.38;6.30;;;;;;;16.79;77.91;99807.06;4978427;28;20573;-39
2022/09/06 04:12:20;;;;;;;21.60;6.65;;;;;;;16.83;77.75;99805.22;4975925;28;20413;-41
2022/09/06 04:14:47;;;;;;;23.15;7.25;;;;;;;16.86;78.05;99807.72;4978618;28;20625;-43
2022/09/06 04:17:13;;;;;;;18.55;6.82;;;;;;;16.86;77.70;99806.88;4978605;28;20397;-41
2022/09/06 04:19:40;;;;;;;20.55;6.47;;;;;;;16.87;77.36;99804.19;4969987;28;20042;-42
2022/09/06 04:22:06;;;;;;;17.63;6.55;;;;;;;16.88;77.28;99800.66;4969385;28;20102;-42
2022/09/06 04:24:33;;;;;;;17.52;6.60;;;;;;;16.89;77.62;99807.59;4978675;28;20469;-39
2022/09/06 04:27:00;;;;;;;20.65;6.43;;;;;;;16.90;77.21;99804.09;4977266;28;20117;-40
2022/09/06 04:29:26;;;;;;;15.88;5.85;;;;;;;16.90;77.55;99801.50;4975886;28;20116;-38
2022/09/06 04:31:53;;;;;;;18.05;6.40;;;;;;;16.90;77.65;99798.88;4972004;28;20051;-39
2022/09/06 04:34:19;;;;;;;19.98;6.35;;;;;;;16.90;77.64;99787.53;4975558;28;21852;-42
2022/09/06 04:36:46;;;;;;;18.80;7.25;;;;;;;16.89;77.20;99799.75;4970959;28;20043;-38
2022/09/06 04:39:14;;;;;;;20.35;7.25;;;;;;;16.89;76.74;99793.69;4970395;28;20049;-45
2022/09/06 04:41:41;;;;;;;15.10;6.65;;;;;;;16.88;76.65;99784.13;4975319;28;20105;-41
2022/09/06 04:44:08;;;;;;;19.17;6.57;;;;;;;16.87;76.67;99787.63;4971452;28;20050;-43
2022/09/06 04:46:34;;;;;;;17.45;6.60;;;;;;;16.84;77.12;99783.38;4969629;28;24404;-42
2022/09/06 04:49:01;;;;;;;21.77;6.72;;;;;;;16.83;77.03;99773.81;4968909;28;20059;-41
2022/09/06 04:51:28;;;;;;;17.52;6.40;;;;;;;16.82;77.22;99770.34;4945761;28;20551;-38
2022/09/06 04:53:55;;;;;;;19.77;7.35;;;;;;;16.83;76.46;99771.22;4945265;28;20486;-38
2022/09/06 04:56:24;;;;;;;17.45;6.35;;;;;;;16.86;77.05;99781.56;4962434;28;20116;-39
2022/09/06 04:58:52;;;;;;;20.42;7.78;;;;;;;16.87;76.57;99783.28;4974194;28;20042;-42
2022/09/06 05:01:19;;;;;;;16.10;6.97;;;;;;;16.89;76.53;99785.84;4970928;28;20101;-39
2022/09/06 05:03:46;;;;;;;17.90;7.18;;;;;;;16.91;76.59;99779.66;4967996;28;20053;-44
2022/09/06 05:06:20;;;;;;;20.25;7.32;;;;;;;16.91;76.65;99777.03;4971688;28;20073;-43
2022/09/06 05:08:47;;;;;;;20.67;7.25;;;;;;;16.93;76.25;99785.66;4971641;28;20057;-43
2022/09/06 05:11:15;;;;;;;18.20;7.53;;;;;;;16.95;76.15;99786.47;4977201;28;20047;-40
2022/09/06 05:13:42;;;;;;;16.70;6.45;;;;;;;16.99;76.10;99794.25;4978131;28;20047;-40
2022/09/06 05:16:09;;;;;;;16.77;7.13;;;;;;;17.01;76.51;99789.78;4969200;28;20054;-40
2022/09/06 05:18:35;;;;;;;17.50;6.78;;;;;;;17.02;75.78;99797.59;4971856;28;20058;-42
2022/09/06 05:21:03;;;;;;;21.40;7.30;;;;;;;17.04;75.60;99790.56;4977912;28;20058;-47
2022/09/06 05:23:29;;;;;;;21.20;8.95;;;;;;;17.08;76.13;99786.09;4971119;28;20093;-45
2022/09/06 05:25:56;;;;;;;16.63;6.85;;;;;;;17.07;76.45;99785.25;4966533;28;20082;-45
2022/09/06 05:28:23;;;;;;;18.25;8.35;;;;;;;17.08;75.75;99786.09;4969163;28;20088;-39
2022/09/06 05:30:49;;;;;;;18.55;7.40;;;;;;;17.07;75.48;99780.03;4974695;28;20487;-42
2022/09/06 05:33:21;;;;;;;17.48;7.97;;;;;;;17.08;75.68;99773.00;4969531;28;20043;-38
2022/09/06 05:35:48;;;;;;;17.70;7.05;;;;;;;17.10;75.29;99773.84;4974253;28;20101;-44
2022/09/06 05:38:15;;;;;;;18.90;7.47;;;;;;;17.10;75.16;99768.59;4959803;28;20054;-41
2022/09/06 05:40:42;;;;;;;18.20;7.03;;;;;;;17.09;75.66;99772.09;4974795;28;20051;-43
2022/09/06 05:43:08;;;;;;;18.70;7.55;;;;;;;17.10;75.18;99771.22;4978412;28;20081;-38
2022/09/06 05:45:35;;;;;;;20.63;7.22;;;;;;;17.12;75.85;99777.22;4966213;28;20047;-42
2022/09/06 05:48:02;;;;;;;22.83;8.65;;;;;;;17.13;75.28;99773.72;4981565;28;20068;-38
2022/09/06 05:50:29;;;;;;;20.20;6.68;;;;;;;17.15;75.06;99777.13;4974144;28;20772;-42
2022/09/06 05:52:55;;;;;;;20.73;7.40;;;;;;;17.14;75.19;99759.72;4964209;28;20050;-43
2022/09/06 05:55:22;;;;;;;21.73;7.75;;;;;;;17.14;75.10;99764.97;4972993;28;20141;-43
2022/09/06 05:57:48;;;;;;;19.67;7.75;;;;;;;17.13;75.34;99767.63;4980815;28;20078;-39
2022/09/06 06:00:15;;;;;;;23.08;6.50;;;;;;;17.13;75.80;99760.66;4965973;28;20141;-39
2022/09/06 06:02:42;;;;;;;21.48;7.35;;;;;;;17.08;75.31;99762.56;4965886;28;20066;-40
2022/09/06 06:05:08;;;;;;;19.88;7.40;;;;;;;17.06;75.96;99761.75;4976986;28;20380;-42
2022/09/06 06:07:35;;;;;;;20.02;7.97;;;;;;;17.05;75.47;99755.66;4968404;28;20113;-43
2022/09/06 06:10:03;;;;;;;23.08;7.97;;;;;;;17.03;76.20;99756.59;4973212;28;20078;-44
2022/09/06 06:12:29;;;;;;;19.60;6.72;;;;;;;16.99;76.79;99760.22;4982665;28;20490;-42
2022/09/06 06:14:56;;;;;;;17.90;6.93;;;;;;;16.99;76.64;99755.00;4972838;28;20084;-39
2022/09/06 06:17:23;;;;;;;25.42;7.72;;;;;;;16.97;76.30;99752.44;4970240;28;20055;-42
2022/09/06 06:19:49;;;;;;;22.08;6.65;;;;;;;16.96;75.92;99746.34;4967114;28;20055;-37
2022/09/06 06:22:16;;;;;;;22.48;7.22;;;;;;;17.01;76.19;99750.56;4973730;28;20042;-39
2022/09/06 06:24:42;;;;;;;21.92;7.13;;;;;;;17.03;76.83;99751.38;4969905;28;20091;-43
2022/09/06 06:27:09;;;;;;;27.48;7.75;;;;;;;17.07;76.15;99755.63;4981642;28;20104;-45
2022/09/06 06:29:36;;;;;;;29.25;9.05;;;;;;;17.11;76.81;99754.59;4974640;28;20038;-39
2022/09/06 06:32:02;;;;;;;21.83;7.97;;;;;;;17.18;76.99;99761.34;4973182;28;20051;-42
2022/09/06 06:34:29;;;;;;;22.48;7.97;;;;;;;17.28;76.60;99761.00;4978722;28;20093;-44
2022/09/06 06:36:56;;;;;;;24.95;9.18;;;;;;;17.40;76.72;99755.34;4970882;28;20419;-39
2022/09/06 06:39:23;;;;;;;29.27;7.72;;;;;;;17.55;76.51;99747.81;4973829;28;20089;-38
2022/09/06 06:41:50;;;;;;;24.23;8.43;;;;;;;17.67;76.69;99751.78;4966738;28;20166;-39
2022/09/06 06:44:16;;;;;;;23.50;8.13;;;;;;;17.77;76.31;99752.28;4969608;28;20114;-41
2022/09/06 06:46:43;;;;;;;27.70;8.00;;;;;;;17.87;76.04;99743.16;4964550;28;20047;-41
2022/09/06 06:49:10;;;;;;;19.77;7.63;;;;;;;17.92;75.75;99743.84;4964850;28;20408;-44
2022/09/06 06:51:36;;;;;;;19.95;7.80;;;;;;;17.92;75.48;99749.06;4975765;28;20042;-41
2022/09/06 06:54:04;;;;;;;18.98;7.65;;;;;;;17.90;76.51;99743.03;4971599;28;20486;-38
2022/09/06 06:56:34;;;;;;;20.48;7.82;;;;;;;17.89;76.10;99741.31;4971606;28;20112;-41
2022/09/06 06:59:03;;;;;;;18.92;7.45;;;;;;;17.89;76.31;99751.81;4967556;28;20059;-39
2022/09/06 07:01:31;;;;;;;16.35;7.10;;;;;;;17.86;75.79;99752.78;4987946;28;20058;-41
2022/09/06 07:03:58;;;;;;;17.45;8.10;;;;;;;17.86;75.63;99752.78;4960844;28;20050;-38
2022/09/06 07:06:27;;;;;;;24.02;9.00;;;;;;;17.93;76.19;99756.00;4963307;28;20073;-39
2022/09/06 07:09:16;;;;;;;18.80;7.30;;;;;;;17.96;76.07;99763.75;4975187;28;20058;-39
2022/09/06 07:11:43;;;;;;;;;;;;;;;17.88;75.87;99763.22;4962558;28;20051;-38
2022/09/06 07:14:10;;;;;;;14.43;5.43;;;;;;;18.03;76.07;99743.41;4972274;28;19922;-41
2022/09/06 07:16:37;;;;;;;16.27;6.63;;;;;;;18.07;76.11;99733.69;4971215;28;20059;-40
2022/09/06 07:19:03;;;;;;;13.40;5.95;;;;;;;18.13;76.05;99733.47;4971849;28;20776;-40
2022/09/06 07:21:30;;;;;;;15.13;6.25;;;;;;;18.18;76.25;99742.00;4966060;28;20069;-46
2022/09/06 07:24:06;;;;;;;15.98;6.30;;;;;;;18.23;75.95;99750.53;4958155;28;20047;-38
2022/09/06 07:26:35;;;;;;;18.92;6.35;;;;;;;18.21;76.67;99741.88;4978715;28;20078;-46
2022/09/06 07:29:04;;;;;;;17.08;6.97;;;;;;;18.22;76.10;99743.59;4971310;28;20352;-41
2022/09/06 07:31:31;;;;;;;16.70;6.65;;;;;;;18.23;75.63;99750.53;4976469;28;20046;-38
2022/09/06 07:34:19;;;;;;;14.15;6.53;;;;;;;18.24;75.98;99752.22;4995158;28;20051;-42
2022/09/06 07:36:47;;;;;;;19.17;6.15;;;;;;;18.24;76.19;99752.22;4967279;28;20053;-42
2022/09/06 07:39:13;;;;;;;16.10;6.63;;;;;;;18.28;76.43;99747.75;4981122;28;20109;-44
2022/09/06 07:41:41;;;;;;;14.63;6.47;;;;;;;18.33;76.05;99729.19;4977310;28;20051;-39
2022/09/06 07:44:08;;;;;;;19.17;6.45;;;;;;;18.36;75.74;99729.06;4973469;28;20043;-39
2022/09/06 07:46:35;;;;;;;15.85;6.32;;;;;;;18.42;75.67;99733.22;4978960;28;20054;-39
2022/09/06 07:49:04;;;;;;;17.00;7.28;;;;;;;18.47;75.83;99734.72;4978783;28;20075;-41
2022/09/06 07:51:31;;;;;;;17.02;7.47;;;;;;;18.53;75.95;99743.25;4970913;28;20097;-39
2022/09/06 07:53:58;;;;;;;19.80;6.75;;;;;;;18.54;75.17;99742.34;4978014;28;20050;-44
2022/09/06 07:56:45;;;;;;;17.15;7.38;;;;;;;18.53;75.67;99748.50;4973891;28;20166;-45
2022/09/06 07:59:12;;;;;;;15.13;6.18;;;;;;;18.50;75.35;99752.97;4974192;28;20515;-41
2022/09/06 08:01:39;;;;;;;20.23;8.75;;;;;;;18.48;75.21;99761.81;4971125;28;20101;-37
2022/09/06 08:06:47;;;;;;;16.52;7.72;;;;;;;18.45;75.41;99754.06;5051250;27;20411;-39
2022/09/06 08:09:34;;;;;;;20.05;7.60;;;;;;;18.41;75.61;99758.56;5021303;28;20145;-38
2022/09/06 08:12:05;;;;;;;16.75;7.53;;;;;;;18.42;75.61;99759.44;5021712;28;20045;-37
2022/09/06 08:14:33;;;;;;;17.10;7.57;;;;;;;18.42;75.22;99765.53;5014640;28;20057;-41
2022/09/06 08:17:00;;;;;;;20.52;7.78;;;;;;;18.44;75.10;99766.31;5016495;28;20057;-44
2022/09/06 08:19:27;;;;;;;18.33;7.90;;;;;;;18.48;75.49;99770.53;5018836;28;20046;-42
2022/09/06 08:21:54;;;;;;;14.20;7.13;;;;;;;18.50;75.34;99770.47;5023141;28;20119;-40
2022/09/06 08:24:21;;;;;;;21.58;8.00;;;;;;;18.50;75.16;99779.19;5018520;28;20053;-44
2022/09/06 08:26:47;;;;;;;14.80;7.25;;;;;;;18.52;75.35;99759.91;5014603;28;20041;-41
2022/09/06 08:29:14;;;;;;;16.63;7.38;;;;;;;18.53;74.89;99759.84;5022523;28;20195;-42
2022/09/06 08:31:42;;;;;;;17.30;7.97;;;;;;;18.59;75.43;99758.75;5014782;28;20069;-41
2022/09/06 08:34:11;;;;;;;19.05;7.75;;;;;;;18.64;75.20;99759.41;5010843;28;20044;-44
2022/09/06 08:36:38;;;;;;;18.33;8.15;;;;;;;18.70;75.49;99764.41;5011259;28;20046;-40
2022/09/06 08:39:08;;;;;;;19.77;7.60;;;;;;;18.78;75.11;99758.81;5017268;28;20376;-41
2022/09/06 08:41:57;;;;;;;19.75;6.18;;;;;;;18.78;75.36;99755.38;5022081;28;20625;-42
2022/09/06 08:44:47;;;;;;;18.73;7.13;;;;;;;18.84;75.50;99752.47;5022333;28;20505;-44
2022/09/06 08:47:23;;;;;;;17.02;7.95;;;;;;;18.97;74.67;99750.19;5012817;28;20046;-39
2022/09/06 08:49:54;;;;;;;15.43;7.15;;;;;;;19.04;74.84;99756.06;5015186;28;20131;-38
2022/09/06 08:55:23;;;;;;;16.50;6.05;;;;;;;19.14;74.81;99752.97;5037124;27;20404;-39
2022/09/06 09:00:27;;;;;;;16.77;5.30;;;;;;;19.29;74.90;99755.88;5050674;28;20940;-48
2022/09/06 09:03:15;;;;;;;14.27;5.95;;;;;;;19.31;74.62;99756.63;5007370;28;20674;-44
2022/09/06 09:05:47;;;;;;;16.77;7.22;;;;;;;19.44;74.49;99756.94;5015208;28;20049;-47
2022/09/06 09:10:58;;;;;;;13.60;5.57;;;;;;;19.64;73.96;99765.72;5037825;27;21120;-44
2022/09/06 09:16:14;;;;;;;13.85;5.43;;;;;;;19.73;73.94;99762.66;5076746;27;20400;-40
2022/09/06 09:18:46;;;;;;;13.98;5.40;;;;;;;19.75;73.83;99763.44;5038606;28;20052;-44
2022/09/06 09:21:17;;;;;;;13.18;5.50;;;;;;;19.75;73.78;99758.19;5037437;28;20065;-41
2022/09/06 09:23:52;;;;;;;14.98;5.28;;;;;;;19.71;73.77;99756.63;5032993;28;20481;-41
2022/09/06 09:26:19;;;;;;;15.32;6.22;;;;;;;19.75;73.70;99757.31;5037291;28;20076;-40
2022/09/06 09:34:35;;;;;;;12.77;5.15;;;;;;;19.87;73.35;99755.94;5073207;27;20404;-37
2022/09/06 09:37:18;;;;;;;14.30;4.90;;;;;;;19.90;73.63;99755.78;5021947;28;20049;-41
2022/09/06 09:40:11;;;;;;;14.15;5.25;;;;;;;19.90;73.08;99745.28;5028166;28;20080;-46
2022/09/06 09:42:39;;;;;;;12.90;5.93;;;;;;;19.94;73.38;99752.09;5029681;28;20056;-41
2022/09/06 09:45:24;;;;;;;12.73;5.35;;;;;;;19.97;73.45;99751.94;5029719;28;20055;-40
2022/09/06 09:47:51;;;;;;;8.13;4.45;;;;;;;20.03;73.12;99762.19;5032351;28;20068;-40
2022/09/06 09:53:17;;;;;;;9.73;4.63;;;;;;;20.02;72.15;99746.50;5017830;28;20434;-45
2022/09/06 09:55:45;;;;;;;10.27;4.80;;;;;;;20.09;72.51;99754.97;5002501;28;20104;-43
2022/09/06 09:58:23;;;;;;;10.45;4.50;;;;;;;20.25;72.95;99776.97;5002534;28;20149;-40
2022/09/06 10:01:09;;;;;;;12.63;4.60;;;;;;;20.51;73.10;99788.00;4999456;28;20127;-40
2022/09/06 10:03:36;;;;;;;9.65;4.45;;;;;;;20.74;71.92;99783.38;5000046;28;20050;-43
2022/09/06 10:06:25;;;;;;;8.80;4.10;;;;;;;21.02;72.02;99771.50;5000613;28;20165;-40
2022/09/06 10:09:32;;;;;;;6.63;3.38;;;;;;;21.27;71.54;99780.78;4993694;28;20133;-40
2022/09/06 10:12:00;;;;;;;6.00;3.30;;;;;;;21.56;70.62;99764.38;4997469;28;20057;-42
2022/09/06 10:17:06;;;;;;;4.88;3.78;;;;;;;22.22;69.67;99764.34;5019669;27;20412;-42
2022/09/06 10:19:43;;;;;;;4.97;3.55;;;;;;;22.67;70.36;99761.00;4978052;28;20105;-46
2022/09/06 10:22:28;;;;;;;6.10;2.67;;;;;;;22.98;67.43;99759.19;4980121;28;20046;-40
2022/09/06 10:27:42;;;;;;;4.20;1.60;;;;;;;22.90;65.21;99756.16;5102093;27;20810;-41
2022/09/06 10:30:31;;;;;;;6.18;2.42;;;;;;;22.88;66.13;99760.66;5035220;28;20049;-42
2022/09/06 10:33:09;;;;;;;5.20;2.08;;;;;;;22.82;65.59;99765.38;5055847;28;20048;-45
2022/09/06 10:35:37;;;;;;;4.68;1.60;;;;;;;22.76;64.67;99765.72;5027416;28;20049;-41
2022/09/06 10:38:26;;;;;;;4.25;1.05;;;;;;;22.72;63.94;99756.28;5024781;28;20641;-39
2022/09/06 10:43:41;;;;;;;5.95;1.60;;;;;;;22.92;65.02;99748.97;5029694;28;20397;-41
2022/09/06 10:46:17;;;;;;;4.80;1.10;;;;;;;23.10;64.38;99755.81;5014435;28;20640;-45
2022/09/06 10:48:44;;;;;;;3.90;1.20;;;;;;;23.21;63.31;99751.66;5016634;28;20127;-41
2022/09/06 10:51:36;;;;;;;5.60;1.40;;;;;;;23.28;63.80;99750.38;5015251;28;20058;-41
2022/09/06 10:56:48;;;;;;;6.40;1.48;;;;;;;23.40;62.74;99758.50;5023629;27;20745;-40
2022/09/06 10:59:55;;;;;;;11.48;1.90;;;;;;;23.33;62.43;99753.56;5016325;28;20099;-40
2022/09/06 11:05:04;;;;;;;4.85;1.50;;;;;;;23.23;61.84;99748.00;5015375;28;20411;-41
2022/09/06 11:07:58;;;;;;;8.18;1.42;;;;;;;23.28;62.07;99750.38;4996615;28;20060;-43
2022/09/06 11:10:48;;;;;;;5.63;1.60;;;;;;;23.54;62.66;99739.97;4996851;28;20073;-40
2022/09/06 11:13:17;;;;;;;3.20;1.58;;;;;;;23.74;62.08;99733.47;4995234;28;20050;-45
2022/09/06 11:19:21;;;;;;;3.75;2.22;;;;;;;23.88;61.47;99747.63;5070760;27;20405;-41
2022/09/06 11:27:34;;;;;;;4.75;1.35;;;;;;;23.85;59.51;99735.41;5038691;28;20381;-37
2022/09/06 11:30:04;;;;;;;7.43;1.65;;;;;;;23.87;60.04;99730.88;5017636;28;20058;-39
2022/09/06 11:32:43;;;;;;;5.65;2.10;;;;;;;23.80;59.86;99726.94;5012940;28;20358;-46
2022/09/06 11:35:22;;;;;;;6.65;1.45;;;;;;;23.92;59.97;99727.09;5030413;28;20615;-44
2022/09/06 11:38:00;;;;;;;3.40;1.42;;;;;;;24.18;59.74;99711.38;5037331;28;20118;-43
2022/09/06 11:40:35;;;;;;;6.85;1.20;;;;;;;24.45;59.58;99705.22;5037503;28;20128;-46
2022/09/06 11:59:27;;;;;;;5.57;0.93;;;;;;;24.30;56.37;99694.69;5084495;27;20418;-39
2022/09/06 12:07:37;;;;;;;3.80;1.40;;;;;;;24.80;52.69;99679.94;5034192;27;20412;-43
2022/09/06 12:27:19;;;;;;;4.47;0.80;;;;;;;24.80;52.70;99664.91;5037757;27;20408;-46
2022/09/06 12:29:53;;;;;;;4.22;0.73;;;;;;;24.71;52.17;99668.16;5036193;28;20123;-43
2022/09/06 12:32:25;;;;;;;6.22;0.85;;;;;;;24.64;53.01;99671.25;5043416;28;20526;-43
2022/09/06 12:34:53;;;;;;;8.68;1.10;;;;;;;24.59;53.16;99668.03;5057010;28;20040;-44
2022/09/06 12:38:02;;;;;;;5.35;1.13;;;;;;;24.42;52.91;99677.16;5055569;28;20051;-46
2022/09/06 12:40:32;;;;;;;1.95;0.75;;;;;;;24.41;53.52;99672.78;5059224;28;20056;-41
2022/09/06 12:43:02;;;;;;;9.77;1.08;;;;;;;24.61;54.43;99666.16;5058445;28;20048;-38
2022/09/06 12:45:29;;;;;;;3.88;0.70;;;;;;;24.80;53.82;99662.25;5053339;28;20048;-44
2022/09/06 12:48:07;;;;;;;9.18;0.90;;;;;;;24.90;53.53;99655.38;5057907;28;20181;-48
2022/09/06 12:50:35;;;;;;;4.63;0.80;;;;;;;25.03;54.07;99654.53;5041885;28;20052;-46
2022/09/06 12:53:16;;;;;;;2.95;0.88;;;;;;;25.18;53.57;99649.97;5050272;28;20053;-40
2022/09/06 12:55:48;;;;;;;6.03;1.10;;;;;;;25.23;53.12;99654.94;5057380;28;20044;-39
2022/09/06 12:58:15;;;;;;;2.45;1.10;;;;;;;25.22;52.75;99653.22;5055097;28;20087;-40
2022/09/06 13:00:50;;;;;;;3.53;1.35;;;;;;;25.18;53.15;99646.44;5060101;28;20052;-46
2022/09/06 13:03:35;;;;;;;7.28;1.55;;;;;;;25.02;52.74;99647.53;5054218;28;20044;-41
2022/09/06 13:06:04;;;;;;;3.33;0.93;;;;;;;24.90;53.48;99652.72;5041466;28;20052;-44
2022/09/06 13:08:37;;;;;;;4.00;0.88;;;;;;;24.77;53.36;99649.22;5056479;28;20048;-44
2022/09/06 13:11:09;;;;;;;6.25;1.02;;;;;;;24.64;53.64;99644.78;5060113;28;20048;-45
2022/09/06 13:13:43;;;;;;;5.05;1.05;;;;;;;24.54;53.67;99637.53;5057300;28;20052;-47
2022/09/06 13:16:10;;;;;;;7.43;1.52;;;;;;;24.51;54.54;99633.31;5058532;28;20048;-47
2022/09/06 13:18:38;;;;;;;3.67;0.77;;;;;;;24.51;54.99;99622.72;5057769;28;20052;-44
2022/09/06 13:21:07;;;;;;;5.50;0.90;;;;;;;24.58;54.63;99624.00;5055835;28;20134;-45
2022/09/06 13:23:46;;;;;;;4.70;0.98;;;;;;;24.63;54.15;99611.28;5051906;28;20045;-43
2022/09/06 13:26:14;;;;;;;4.55;0.82;;;;;;;24.75;54.51;99608.75;5050513;28;20052;-44
2022/09/06 13:28:40;;;;;;;6.03;1.10;;;;;;;24.81;53.93;99603.03;5048202;28;20094;-40
2022/09/06 13:33:57;;;;;;;6.95;1.55;;;;;;;24.88;53.85;99592.88;5033580;27;20427;-44
2022/09/06 13:36:29;;;;;;;4.80;1.00;;;;;;;24.96;53.98;99597.66;5002420;28;20059;-40
2022/09/06 13:38:56;;;;;;;4.97;1.13;;;;;;;24.97;54.01;99581.66;4996038;28;20049;-44
2022/09/06 13:44:06;;;;;;;5.85;2.15;;;;;;;24.81;53.29;99589.78;5106973;27;21095;-47
2022/09/06 13:46:35;;;;;;;6.80;2.00;;;;;;;24.68;52.98;99587.16;5082457;28;20047;-41
2022/09/06 13:49:02;;;;;;;7.13;2.08;;;;;;;24.47;53.38;99584.19;5085101;28;20058;-41
2022/09/06 13:51:29;;;;;;;5.50;2.42;;;;;;;24.34;53.24;99579.75;5082559;28;20164;-47
2022/09/06 13:54:13;;;;;;;3.28;1.98;;;;;;;24.18;53.77;99587.03;5084571;28;20044;-42
2022/09/06 13:56:41;;;;;;;6.72;2.05;;;;;;;24.09;53.87;99570.81;5083128;28;20060;-40
2022/09/06 13:59:09;;;;;;;4.90;1.40;;;;;;;23.94;54.07;99562.06;5080822;28;21017;-40
2022/09/06 14:01:37;;;;;;;5.35;2.38;;;;;;;23.90;54.48;99565.88;5081076;28;20133;-40
2022/09/06 14:04:04;;;;;;;5.30;2.05;;;;;;;23.83;54.14;99560.16;5079079;28;20104;-48
2022/09/06 14:06:31;;;;;;;5.28;2.45;;;;;;;23.85;54.59;99555.59;5085157;28;20056;-42
2022/09/06 14:09:03;;;;;;;3.60;1.77;;;;;;;23.88;55.06;99562.50;5086019;28;20052;-45